Time;durP1;ratioP1;P1;durP2;ratioP2;P2;SDS_P1;SDS_P2;PMS_P1;PMS_P2;Temp;Humidity;BMP_temperature;BMP_pressure;BME280_temperature;BME280_humidity;BME280_pressure;Samples;Min_cycle;Max_cycle;Signal;HPM_P1;HPM_P2
2022/07/10 00:00:56;;;;;;;5.15;2.55;;;;;;;23.54;54.88;99043.59;1750243;80;21523;-64
2022/07/10 00:03:23;;;;;;;4.42;2.80;;;;;;;23.49;55.03;99044.61;1739058;80;21561;-64
2022/07/10 00:05:52;;;;;;;4.72;3.37;;;;;;;23.46;55.04;99044.41;1744920;80;21520;-64
2022/07/10 00:08:18;;;;;;;3.83;3.30;;;;;;;23.38;55.15;99040.37;1746668;80;21503;-63
2022/07/10 00:10:45;;;;;;;4.60;2.80;;;;;;;23.34;55.13;99049.75;1753558;80;21940;-64
2022/07/10 00:13:12;;;;;;;2.85;2.62;;;;;;;23.31;55.32;99055.42;1756631;80;21515;-64
2022/07/10 00:15:40;;;;;;;3.52;2.52;;;;;;;23.30;55.28;99063.98;1755511;80;20970;-64
2022/07/10 00:18:06;;;;;;;3.77;3.15;;;;;;;23.31;55.29;99063.47;1755143;80;21475;-64
2022/07/10 00:20:34;;;;;;;10.00;3.33;;;;;;;23.27;55.00;99068.31;1749672;80;21470;-65
2022/07/10 00:23:01;;;;;;;5.12;3.12;;;;;;;23.27;55.00;99068.31;1756014;80;21820;-64
2022/07/10 00:25:28;;;;;;;3.22;2.90;;;;;;;23.21;55.11;99071.65;1744672;80;21566;-63
2022/07/10 00:27:55;;;;;;;5.95;3.08;;;;;;;23.20;55.40;99070.47;1751793;80;21656;-64
2022/07/10 00:30:22;;;;;;;7.92;3.25;;;;;;;23.16;55.44;99067.77;1754821;80;21408;-63
2022/07/10 00:32:48;;;;;;;6.97;3.17;;;;;;;23.18;55.52;99070.62;1750301;80;21530;-64
2022/07/10 00:35:15;;;;;;;6.20;3.05;;;;;;;23.22;55.47;99070.63;1749302;80;21818;-64
2022/07/10 00:37:42;;;;;;;3.70;3.17;;;;;;;23.18;55.40;99067.94;1749710;80;21456;-64
2022/07/10 00:40:08;;;;;;;3.10;2.67;;;;;;;23.16;55.23;99059.73;1748348;80;21511;-64
2022/07/10 00:42:37;;;;;;;3.12;2.83;;;;;;;23.11;55.41;99057.51;1746884;80;21502;-64
2022/07/10 00:45:05;;;;;;;2.30;2.20;;;;;;;23.22;55.27;99057.23;1747045;80;21460;-64
2022/07/10 00:47:31;;;;;;;;;;;;;;;23.22;55.27;99057.23;1691529;83;21740;-63
2022/07/10 00:49:58;;;;;;;3.87;3.05;;;;;;;23.18;55.43;99063.08;1695105;84;20438;-63
2022/07/10 00:52:25;;;;;;;3.22;2.92;;;;;;;23.17;55.32;99066.75;1757426;80;21431;-64
2022/07/10 00:54:52;;;;;;;3.58;3.12;;;;;;;23.19;54.97;99068.77;1751515;80;21554;-63
2022/07/10 00:57:18;;;;;;;5.05;2.77;;;;;;;23.19;55.19;99062.06;1754300;80;21010;-64
2022/07/10 00:59:45;;;;;;;4.23;2.70;;;;;;;23.24;55.17;99061.92;1756733;80;22027;-64
2022/07/10 01:02:13;;;;;;;5.37;3.30;;;;;;;23.28;54.98;99060.62;1750161;80;21519;-62
2022/07/10 01:04:42;;;;;;;6.17;2.58;;;;;;;23.27;54.63;99061.61;1754036;80;20951;-64
2022/07/10 01:07:08;;;;;;;7.22;3.00;;;;;;;23.27;54.63;99061.61;1745434;80;21525;-63
2022/07/10 01:09:35;;;;;;;2.55;2.17;;;;;;;23.20;54.53;99051.70;1756589;80;21305;-63
2022/07/10 01:12:03;;;;;;;2.75;2.50;;;;;;;23.20;54.53;99051.70;1744998;80;22035;-63
2022/07/10 01:14:30;;;;;;;4.67;2.65;;;;;;;23.24;54.87;99055.73;1753727;80;21562;-65
2022/07/10 01:17:00;;;;;;;3.20;2.85;;;;;;;23.20;54.79;99048.50;1751650;80;21006;-64
2022/07/10 01:19:27;;;;;;;5.12;2.92;;;;;;;23.08;54.82;99050.64;1749175;80;21093;-64
2022/07/10 01:21:54;;;;;;;5.67;2.85;;;;;;;22.90;55.07;99033.75;1750511;80;21543;-62
2022/07/10 01:24:22;;;;;;;5.40;2.90;;;;;;;22.90;55.07;99033.75;1749907;80;21406;-62
2022/07/10 01:26:48;;;;;;;3.67;2.80;;;;;;;22.78;55.25;99029.17;1750838;80;21542;-62
2022/07/10 01:29:16;;;;;;;3.72;2.65;;;;;;;22.78;55.35;99026.50;1738746;80;21548;-62
2022/07/10 01:31:43;;;;;;;3.95;3.30;;;;;;;22.74;55.40;99026.48;1752299;81;21015;-62
2022/07/10 01:34:09;;;;;;;6.78;2.90;;;;;;;22.70;55.40;99023.78;1742014;80;21506;-61
2022/07/10 01:36:37;;;;;;;;;;;;;;;22.66;55.31;99023.25;1751071;80;21878;-62
2022/07/10 01:39:05;;;;;;;3.17;2.83;;;;;;;22.57;55.56;99019.35;1745194;80;20432;-62
2022/07/10 01:41:34;;;;;;;4.55;3.00;;;;;;;22.50;55.59;99023.97;1740024;81;21724;-62
2022/07/10 01:44:00;;;;;;;7.92;3.60;;;;;;;22.45;55.81;99016.94;1743867;80;21558;-62
2022/07/10 01:46:27;;;;;;;3.40;2.75;;;;;;;22.50;55.87;99019.95;1745851;80;21553;-62
2022/07/10 01:48:54;;;;;;;4.87;2.92;;;;;;;22.46;55.69;99014.58;1745752;80;21895;-62
2022/07/10 01:51:21;;;;;;;5.45;2.92;;;;;;;22.37;55.81;99011.50;1748982;81;21545;-62
2022/07/10 01:53:48;;;;;;;4.97;2.95;;;;;;;22.32;55.83;99012.45;1750686;80;20989;-62
2022/07/10 01:56:15;;;;;;;3.67;2.70;;;;;;;22.24;55.97;99017.73;1744507;80;21454;-62
2022/07/10 01:58:43;;;;;;;3.67;2.62;;;;;;;22.18;56.55;99018.36;1752638;81;20947;-62
2022/07/10 02:01:10;;;;;;;3.85;2.70;;;;;;;22.18;56.55;99018.36;1745983;81;21731;-62
2022/07/10 02:06:24;;;;;;;4.78;2.20;;;;;;;22.16;56.32;99012.65;1741379;81;21429;-62
2022/07/10 02:08:51;;;;;;;5.97;2.83;;;;;;;22.16;56.32;99012.65;1751908;81;20986;-62
2022/07/10 02:11:18;;;;;;;4.22;2.45;;;;;;;22.10;56.72;99013.78;1746318;80;21510;-62
2022/07/10 02:13:45;;;;;;;6.20;2.72;;;;;;;22.01;56.89;99011.53;1744890;81;21890;-62
2022/07/10 02:16:12;;;;;;;4.60;2.35;;;;;;;22.02;57.08;99007.88;1752114;80;21022;-62
2022/07/10 02:18:40;;;;;;;3.00;2.72;;;;;;;22.00;57.39;99010.34;1752465;81;21437;-62
2022/07/10 02:21:07;;;;;;;3.98;2.65;;;;;;;21.96;57.45;99011.14;1749189;80;21601;-63
2022/07/10 02:23:35;;;;;;;2.70;2.50;;;;;;;21.95;57.73;99013.48;1746849;81;21494;-63
2022/07/10 02:26:01;;;;;;;4.50;2.92;;;;;;;21.92;57.73;99008.43;1747056;80;21804;-62
2022/07/10 02:28:29;;;;;;;6.55;2.85;;;;;;;21.91;57.72;99004.09;1707950;82;20985;-62
2022/07/10 02:30:56;;;;;;;4.40;2.80;;;;;;;21.90;57.86;99000.55;1685401;84;21520;-62
2022/07/10 02:33:23;;;;;;;6.12;2.62;;;;;;;21.93;58.00;99003.44;1702289;83;21512;-62
2022/07/10 02:35:49;;;;;;;3.45;2.98;;;;;;;21.93;58.07;98999.42;1742775;80;21484;-62
2022/07/10 02:38:16;;;;;;;9.00;3.55;;;;;;;21.97;58.14;98992.77;1752810;80;22004;-62
2022/07/10 02:40:43;;;;;;;6.15;3.17;;;;;;;22.02;57.87;98989.13;1745345;81;21431;-61
2022/07/10 02:43:10;;;;;;;3.62;3.08;;;;;;;22.01;57.80;98990.62;1743045;80;21530;-62
2022/07/10 02:45:38;;;;;;;5.40;3.15;;;;;;;22.03;57.85;98989.45;1739081;80;21069;-62
2022/07/10 02:48:06;;;;;;;3.55;3.17;;;;;;;22.06;57.83;98989.16;1741357;80;21486;-62
2022/07/10 02:50:33;;;;;;;4.72;3.27;;;;;;;22.11;57.85;98997.58;1755478;80;21782;-62
2022/07/10 02:53:02;;;;;;;5.35;3.33;;;;;;;22.18;57.75;98994.27;1743435;81;21551;-63
2022/07/10 02:55:31;;;;;;;;;;;;;;;22.23;57.41;98991.97;1749340;80;21499;-63
2022/07/10 02:58:03;;;;;;;4.35;3.52;;;;;;;22.15;57.50;98993.59;1746411;80;20425;-63
2022/07/10 03:00:28;;;;;;;7.80;3.50;;;;;;;22.11;57.39;98993.56;1752449;81;21526;-62
2022/07/10 03:02:55;;;;;;;3.77;3.35;;;;;;;22.05;57.73;98990.14;1754202;81;21876;-62
2022/07/10 03:05:22;;;;;;;7.77;3.40;;;;;;;22.12;57.77;98997.90;1747288;80;21104;-62
2022/07/10 03:07:49;;;;;;;4.53;3.30;;;;;;;22.14;57.73;98993.23;1742740;81;21444;-62
2022/07/10 03:10:16;;;;;;;4.37;3.50;;;;;;;22.21;57.73;98992.59;1740080;80;21501;-63
2022/07/10 03:12:43;;;;;;;7.05;3.80;;;;;;;22.24;57.55;98995.80;1747131;81;21600;-62
2022/07/10 03:15:10;;;;;;;9.63;4.17;;;;;;;22.22;57.29;98985.75;1749586;80;22014;-62
2022/07/10 03:17:37;;;;;;;3.63;3.33;;;;;;;22.17;57.44;98989.42;1750021;80;21499;-63
2022/07/10 03:20:05;;;;;;;4.22;3.47;;;;;;;22.23;57.43;98990.63;1742971;80;22120;-62
2022/07/10 03:22:32;;;;;;;4.60;3.33;;;;;;;22.26;57.44;98989.83;1747555;80;20955;-62
2022/07/10 03:24:59;;;;;;;4.00;3.53;;;;;;;22.33;57.25;98997.58;1705217;82;21531;-63
2022/07/10 03:27:25;;;;;;;10.03;4.10;;;;;;;22.41;57.14;98990.60;1728334;81;21927;-63
2022/07/10 03:29:52;;;;;;;5.80;3.92;;;;;;;22.50;56.78;98997.19;1720083;81;21042;-63
2022/07/10 03:32:20;;;;;;;4.60;3.87;;;;;;;22.47;56.62;98990.83;1713981;82;21432;-63
2022/07/10 03:34:46;;;;;;;9.93;3.77;;;;;;;22.49;56.69;99000.88;1718924;81;27114;-63
2022/07/10 03:37:13;;;;;;;3.92;3.42;;;;;;;22.49;56.89;99000.02;1729739;81;21633;-62
2022/07/10 03:39:41;;;;;;;3.22;2.90;;;;;;;22.60;56.79;98991.72;1718286;82;21841;-63
2022/07/10 03:42:08;;;;;;;7.28;3.58;;;;;;;22.67;56.60;98996.79;1718420;81;25774;-63
2022/07/10 03:44:35;;;;;;;3.90;3.50;;;;;;;22.70;56.34;99002.34;1717400;82;21460;-64
2022/07/10 03:47:02;;;;;;;6.72;4.20;;;;;;;22.67;56.36;99003.48;1719265;81;21389;-64
2022/07/10 03:49:29;;;;;;;5.55;3.35;;;;;;;22.66;56.18;99003.16;1728262;81;21527;-64
2022/07/10 03:52:01;;;;;;;6.70;3.40;;;;;;;22.69;56.17;99004.67;1717209;81;21805;-64
2022/07/10 03:54:29;;;;;;;4.42;3.83;;;;;;;22.77;56.17;98999.34;1723658;81;21542;-63
2022/07/10 03:59:43;;;;;;;4.60;3.35;;;;;;;22.84;55.75;98997.71;1710802;82;21440;-62
2022/07/10 04:02:09;;;;;;;4.70;3.27;;;;;;;22.84;55.75;98997.71;1719401;81;21514;-63
2022/07/10 04:04:37;;;;;;;3.45;2.87;;;;;;;22.83;55.59;98992.03;1725104;81;22108;-64
2022/07/10 04:07:04;;;;;;;3.60;2.95;;;;;;;22.86;55.98;98991.69;1717468;82;20939;-63
2022/07/10 04:09:31;;;;;;;3.67;2.65;;;;;;;22.94;55.95;98989.55;1715285;82;21486;-63
2022/07/10 04:11:58;;;;;;;3.58;2.90;;;;;;;22.99;55.56;98991.77;1720827;81;21437;-63
2022/07/10 04:14:25;;;;;;;4.87;3.00;;;;;;;23.08;55.50;98988.97;1717212;81;21509;-64
2022/07/10 04:16:51;;;;;;;3.87;3.35;;;;;;;23.09;54.75;98987.98;1717574;82;21453;-63
2022/07/10 04:19:18;;;;;;;4.05;2.62;;;;;;;23.09;54.75;98987.98;1715879;81;21546;-63
2022/07/10 04:21:45;;;;;;;4.12;2.72;;;;;;;23.12;55.12;98985.47;1725522;81;21424;-64
2022/07/10 04:24:11;;;;;;;5.80;3.08;;;;;;;23.19;55.23;98984.30;1721023;81;21605;-63
2022/07/10 04:26:38;;;;;;;3.45;2.72;;;;;;;23.26;54.80;98978.16;1724283;82;21626;-63
2022/07/10 04:29:05;;;;;;;3.62;3.08;;;;;;;23.30;54.28;98962.07;1703784;82;21892;-63
2022/07/10 04:31:32;;;;;;;6.47;2.60;;;;;;;23.30;54.28;98962.07;1753637;80;21058;-63
2022/07/10 04:33:58;;;;;;;5.60;3.27;;;;;;;23.35;54.22;98966.93;1747200;80;21446;-63
2022/07/10 04:36:25;;;;;;;4.67;2.90;;;;;;;23.39;54.36;98972.30;1755911;80;21432;-63
2022/07/10 04:38:52;;;;;;;3.33;2.60;;;;;;;23.48;54.07;98971.31;1749164;80;21539;-64
2022/07/10 04:41:18;;;;;;;5.33;2.75;;;;;;;23.55;53.79;98966.14;1757046;80;21775;-64
2022/07/10 04:43:46;;;;;;;2.95;2.70;;;;;;;23.57;53.55;98970.84;1755040;80;21605;-64
2022/07/10 04:46:13;;;;;;;2.87;2.57;;;;;;;23.60;53.42;98959.78;1756202;80;21535;-64
2022/07/10 04:48:40;;;;;;;2.65;2.27;;;;;;;23.65;53.36;98968.16;1754821;80;21516;-63
2022/07/10 04:51:06;;;;;;;3.67;2.50;;;;;;;23.69;53.08;98970.83;1753571;80;21523;-64
2022/07/10 04:53:33;;;;;;;4.37;2.58;;;;;;;23.85;53.12;98964.69;1754450;80;22126;-64
2022/07/10 04:56:02;;;;;;;2.77;2.57;;;;;;;23.85;53.12;98964.69;1760715;80;21463;-64
2022/07/10 04:58:29;;;;;;;2.75;2.55;;;;;;;23.91;52.79;98969.89;1746244;80;21506;-63
2022/07/10 05:01:00;;;;;;;4.60;2.60;;;;;;;23.57;52.50;98913.66;1752600;80;21507;-65
2022/07/10 05:03:28;;;;;;;2.72;2.30;;;;;;;23.97;52.39;98966.52;1758035;80;22358;-63
2022/07/10 05:05:55;;;;;;;3.40;2.22;;;;;;;23.97;52.39;98966.52;1754500;80;21586;-65
2022/07/10 05:08:22;;;;;;;2.50;2.20;;;;;;;24.13;52.54;98964.83;1755626;80;21641;-64
2022/07/10 05:10:49;;;;;;;2.90;2.40;;;;;;;24.19;52.03;98970.38;1746698;80;21545;-65
2022/07/10 05:13:15;;;;;;;4.20;2.42;;;;;;;24.24;52.08;98967.17;1743339;80;21017;-65
2022/07/10 05:15:43;;;;;;;3.10;2.80;;;;;;;24.29;51.62;98964.82;1756217;80;21400;-68
2022/07/10 05:18:10;;;;;;;2.52;2.27;;;;;;;24.41;51.22;98967.50;1708886;80;21827;-64
2022/07/10 05:20:41;;;;;;;3.67;2.22;;;;;;;24.41;51.22;98967.50;1749357;80;21537;-64
2022/07/10 05:23:05;;;;;;;3.33;2.27;;;;;;;24.50;51.50;98969.64;1745875;80;21480;-64
2022/07/10 05:25:32;;;;;;;2.90;1.90;;;;;;;24.61;51.47;98966.63;1752600;80;21625;-64
2022/07/10 05:27:59;;;;;;;4.13;2.30;;;;;;;24.72;50.87;98975.34;1747060;80;21515;-64
2022/07/10 05:30:26;;;;;;;6.67;2.75;;;;;;;24.77;50.99;98971.13;1748759;80;22072;-64
2022/07/10 05:32:53;;;;;;;6.62;2.65;;;;;;;24.83;50.90;98977.14;1758142;80;21684;-65
2022/07/10 05:35:20;;;;;;;3.35;2.37;;;;;;;24.92;50.58;98971.72;1763290;80;21471;-64
2022/07/10 05:37:49;;;;;;;2.30;2.10;;;;;;;24.97;50.39;98972.05;1754996;80;21610;-66
2022/07/10 05:40:16;;;;;;;4.62;2.27;;;;;;;25.04;50.50;98967.66;1750079;80;21482;-64
2022/07/10 05:42:44;;;;;;;3.75;2.80;;;;;;;25.14;49.73;98958.02;1759726;80;21508;-64
2022/07/10 05:45:11;;;;;;;4.40;2.40;;;;;;;25.22;49.15;98948.55;1753651;80;21562;-65
2022/07/10 05:47:38;;;;;;;5.00;2.70;;;;;;;25.23;49.03;98950.27;1761435;80;20990;-64
2022/07/10 05:50:05;;;;;;;2.50;2.30;;;;;;;25.27;48.77;98951.59;1758732;80;22121;-63
2022/07/10 05:52:32;;;;;;;3.12;2.50;;;;;;;25.30;48.61;98955.28;1770032;80;21431;-64
2022/07/10 05:54:59;;;;;;;4.17;2.65;;;;;;;25.38;48.53;98951.70;1734249;80;21766;-65
2022/07/10 05:57:25;;;;;;;3.40;2.90;;;;;;;25.43;48.42;98947.98;1761112;80;21657;-65
2022/07/10 05:59:52;;;;;;;4.72;2.25;;;;;;;25.61;48.28;98953.05;1745855;80;21495;-59
2022/07/10 06:02:19;;;;;;;4.53;2.10;;;;;;;25.61;48.28;98953.05;1756724;80;20997;-59
2022/07/10 06:04:46;;;;;;;4.67;2.52;;;;;;;25.75;48.09;98950.08;1755317;80;21541;-59
2022/07/10 06:07:16;;;;;;;3.02;2.47;;;;;;;25.74;47.84;98954.63;1752150;80;21397;-58
2022/07/10 06:09:43;;;;;;;4.33;2.58;;;;;;;25.79;47.75;98942.00;1755439;80;21464;-60
2022/07/10 06:12:10;;;;;;;2.83;2.35;;;;;;;25.87;47.64;98943.78;1757515;80;21557;-60
2022/07/10 06:14:37;;;;;;;2.55;2.02;;;;;;;25.95;47.82;98948.59;1757633;80;21495;-60
2022/07/10 06:17:04;;;;;;;3.50;2.20;;;;;;;26.03;47.35;98951.23;1762712;80;21565;-60
2022/07/10 06:19:31;;;;;;;3.17;2.30;;;;;;;26.02;46.94;98946.86;1760988;80;21748;-59
2022/07/10 06:24:45;;;;;;;5.40;2.17;;;;;;;26.18;46.33;98941.84;1755637;80;21427;-59
2022/07/10 06:27:12;;;;;;;2.08;1.87;;;;;;;26.27;46.11;98939.05;1764280;80;21557;-60
2022/07/10 06:29:38;;;;;;;3.50;2.25;;;;;;;26.33;46.55;98943.19;1758283;80;21596;-59
2022/07/10 06:32:06;;;;;;;4.17;1.80;;;;;;;26.39;46.11;98931.69;1751195;80;21797;-59
2022/07/10 06:34:33;;;;;;;3.02;1.80;;;;;;;26.61;46.07;98934.50;1750197;80;21464;-59
2022/07/10 06:36:59;;;;;;;3.15;2.47;;;;;;;26.79;45.19;98933.61;1749816;80;21536;-59
2022/07/10 06:39:26;;;;;;;3.70;1.92;;;;;;;26.83;44.71;98930.55;1759127;80;21476;-59
2022/07/10 06:41:53;;;;;;;2.90;1.85;;;;;;;26.93;44.66;98931.08;1754319;80;21451;-59
2022/07/10 06:44:19;;;;;;;2.20;2.00;;;;;;;27.06;44.81;98925.84;1759154;80;21821;-59
2022/07/10 06:47:55;;;;;;;3.17;1.87;;;;;;;27.17;44.89;98924.00;1755891;80;21581;-59
2022/07/10 06:49:15;;;;;;;2.65;2.25;;;;;;;27.27;44.00;98922.89;1748614;80;21448;-59
2022/07/10 06:51:41;;;;;;;5.03;2.10;;;;;;;27.33;43.95;98922.98;1751982;80;21539;-59
2022/07/10 06:54:08;;;;;;;3.60;2.12;;;;;;;27.36;43.66;98919.88;1706184;82;21515;-59
2022/07/10 06:56:34;;;;;;;4.80;2.05;;;;;;;27.39;43.31;98911.93;1759307;80;22100;-59
2022/07/10 06:59:01;;;;;;;4.37;2.20;;;;;;;27.45;43.48;98917.91;1748176;80;21085;-59
2022/07/10 07:01:28;;;;;;;2.85;2.08;;;;;;;27.43;43.46;98915.91;1750885;80;27022;-59
2022/07/10 07:03:56;;;;;;;3.17;2.17;;;;;;;27.50;43.49;98920.01;1748097;80;21004;-59
2022/07/10 07:06:23;;;;;;;3.45;2.42;;;;;;;27.54;43.28;98918.62;1747379;80;21555;-60
2022/07/10 07:08:49;;;;;;;3.08;2.42;;;;;;;27.61;42.93;98914.09;1746979;80;21808;-60
2022/07/10 07:11:16;;;;;;;4.50;2.35;;;;;;;27.71;42.80;98912.44;1751984;80;21427;-59
2022/07/10 07:13:43;;;;;;;3.70;1.98;;;;;;;27.75;42.43;98905.62;1747170;80;21482;-60
2022/07/10 07:16:11;;;;;;;2.83;2.45;;;;;;;27.74;42.32;98905.28;1748553;80;21091;-59
2022/07/10 07:18:47;;;;;;;5.72;2.55;;;;;;;27.83;42.40;98904.64;1744891;80;21443;-62
2022/07/10 07:23:51;;;;;;;4.35;2.58;;;;;;;27.91;42.33;98897.24;1738548;80;21419;-58
2022/07/10 07:26:18;;;;;;;2.52;2.33;;;;;;;28.06;42.32;98893.63;1758700;80;21554;-57
2022/07/10 07:28:44;;;;;;;4.25;2.70;;;;;;;28.12;42.41;98888.28;1691972;82;21610;-58
2022/07/10 07:31:11;;;;;;;3.15;2.22;;;;;;;28.26;42.56;98887.84;1750749;80;21598;-57
2022/07/10 07:33:38;;;;;;;2.40;2.20;;;;;;;28.42;42.54;98892.60;1738061;80;21491;-58
2022/07/10 07:36:05;;;;;;;4.53;3.00;;;;;;;28.54;42.78;98895.11;1749955;80;21569;-62
2022/07/10 07:38:31;;;;;;;3.75;2.47;;;;;;;28.50;42.44;98893.78;1760686;80;23526;-59
2022/07/10 07:41:00;;;;;;;5.35;2.37;;;;;;;28.43;42.16;98889.70;1758161;80;21614;-59
2022/07/10 07:43:27;;;;;;;2.83;2.60;;;;;;;28.42;42.04;98891.25;1755117;80;21100;-58
2022/07/10 07:45:54;;;;;;;3.00;2.45;;;;;;;28.35;42.42;98885.30;1754075;80;21898;-58
2022/07/10 07:48:21;;;;;;;3.85;2.30;;;;;;;28.35;42.54;98895.28;1749668;80;21566;-58
2022/07/10 07:50:48;;;;;;;3.30;2.23;;;;;;;28.42;42.25;98890.72;1689384;83;21507;-58
2022/07/10 07:53:15;;;;;;;2.53;2.33;;;;;;;28.50;41.61;98896.48;1748962;80;21479;-59
2022/07/10 07:55:41;;;;;;;4.00;2.30;;;;;;;28.67;41.76;98891.12;1755507;80;21512;-59
2022/07/10 07:58:08;;;;;;;2.83;2.20;;;;;;;28.86;41.62;98887.34;1743102;80;22022;-59
2022/07/10 08:00:35;;;;;;;4.58;2.40;;;;;;;28.98;41.12;98891.65;1744640;80;21034;-62
2022/07/10 08:03:02;;;;;;;3.58;2.62;;;;;;;29.05;41.08;98892.52;1742473;80;21503;-59
2022/07/10 08:05:29;;;;;;;3.27;2.40;;;;;;;29.17;40.82;98893.59;1752289;80;21559;-59
2022/07/10 08:07:59;;;;;;;3.45;1.80;;;;;;;29.34;40.64;98893.23;1745755;80;21526;-59
2022/07/10 08:10:27;;;;;;;3.55;2.33;;;;;;;29.44;40.60;98886.88;1744019;80;21581;-59
2022/07/10 08:12:55;;;;;;;3.08;2.58;;;;;;;29.49;40.28;98897.41;1744718;80;21416;-61
2022/07/10 08:15:22;;;;;;;3.95;2.10;;;;;;;29.62;39.79;98892.53;1745074;80;21550;-61
2022/07/10 08:17:56;;;;;;;3.00;2.37;;;;;;;30.13;38.54;98889.73;1698953;82;21049;-60
2022/07/10 08:20:25;;;;;;;3.47;2.02;;;;;;;30.27;38.33;98892.74;1728976;80;21162;-60
2022/07/10 08:22:57;;;;;;;3.27;2.17;;;;;;;30.39;38.30;98892.12;1746876;80;21519;-60
2022/07/10 08:25:21;;;;;;;2.62;2.42;;;;;;;30.40;38.50;98886.49;1754806;80;21050;-60
2022/07/10 08:27:47;;;;;;;3.40;2.20;;;;;;;30.36;38.14;98888.47;1749248;80;20961;-60
2022/07/10 08:30:14;;;;;;;12.37;2.30;;;;;;;30.39;38.33;98886.70;1743019;80;21486;-60
2022/07/10 08:32:42;;;;;;;3.35;1.90;;;;;;;30.41;37.90;98888.67;1735611;81;20998;-60
2022/07/10 08:35:10;;;;;;;3.50;2.20;;;;;;;30.36;37.33;98876.27;1737436;81;21874;-61
2022/07/10 08:37:40;;;;;;;6.90;2.60;;;;;;;30.27;37.46;98886.46;1732930;81;21782;-61
2022/07/10 08:40:10;;;;;;;3.40;2.30;;;;;;;30.16;37.64;98885.25;1709807;82;21837;-61
2022/07/10 08:42:37;;;;;;;3.85;2.05;;;;;;;30.16;37.15;98883.90;1738511;81;21041;-61
2022/07/10 08:45:06;;;;;;;1.90;1.80;;;;;;;30.18;36.99;98884.52;1746557;81;21515;-64
2022/07/10 08:47:36;;;;;;;2.90;2.00;;;;;;;30.33;37.14;98888.87;1740798;81;21757;-61
2022/07/10 08:50:04;;;;;;;4.30;2.37;;;;;;;30.49;37.11;98880.83;1738371;81;21518;-62
2022/07/10 08:52:46;;;;;;;4.55;2.27;;;;;;;30.50;37.33;98877.05;1740535;80;21480;-62
2022/07/10 08:55:14;;;;;;;1.77;1.67;;;;;;;30.55;37.13;98878.61;1738076;82;21510;-62
2022/07/10 08:57:42;;;;;;;2.98;2.12;;;;;;;30.59;35.97;98876.62;1746060;80;21610;-61
2022/07/10 09:00:09;;;;;;;2.52;2.30;;;;;;;30.65;36.42;98877.11;1736570;80;21899;-61
2022/07/10 09:02:37;;;;;;;4.28;3.35;;;;;;;30.77;36.75;98871.84;1740965;81;21555;-62
2022/07/10 09:05:08;;;;;;;4.45;2.15;;;;;;;30.83;36.87;98871.50;1738810;81;21057;-61
2022/07/10 09:07:37;;;;;;;3.40;2.55;;;;;;;30.82;36.42;98869.86;1738765;81;21009;-61
2022/07/10 09:10:11;;;;;;;4.50;2.50;;;;;;;30.77;36.46;98871.02;1741148;81;21585;-63
2022/07/10 09:13:00;;;;;;;5.45;2.55;;;;;;;30.65;36.23;98874.41;1733846;82;21800;-61
2022/07/10 09:15:30;;;;;;;3.10;2.72;;;;;;;30.60;36.42;98874.73;1729641;81;21553;-62
2022/07/10 09:18:00;;;;;;;2.77;2.50;;;;;;;30.54;37.03;98870.17;1739711;80;21051;-60
2022/07/10 09:20:32;;;;;;;2.75;2.50;;;;;;;30.56;37.60;98862.66;1740183;81;21564;-61
2022/07/10 09:23:12;;;;;;;8.58;3.65;;;;;;;30.55;37.71;98872.65;1739095;81;21625;-61
2022/07/10 09:25:39;;;;;;;5.92;2.70;;;;;;;30.65;37.59;98863.55;1736292;81;21861;-59
2022/07/10 09:28:06;;;;;;;2.87;2.58;;;;;;;30.71;37.28;98866.46;1737617;80;21589;-62
2022/07/10 09:30:38;;;;;;;5.05;3.10;;;;;;;30.75;37.46;98866.33;1748303;80;21530;-60
2022/07/10 09:33:26;;;;;;;2.95;2.60;;;;;;;30.75;37.66;98866.33;1758983;80;21578;-59
2022/07/10 09:36:13;;;;;;;4.55;2.83;;;;;;;30.73;37.12;98863.01;1750096;80;21488;-59
2022/07/10 09:38:50;;;;;;;2.72;2.52;;;;;;;30.74;37.57;98862.80;1750573;80;22213;-59
2022/07/10 09:42:42;;;;;;;2.72;2.40;;;;;;;29.22;40.48;98861.88;1768187;78;23105;-59
2022/07/10 09:45:18;;;;;;;3.92;2.65;;;;;;;30.36;37.89;98854.05;1745826;80;21507;-58
2022/07/10 09:47:56;;;;;;;3.63;2.27;;;;;;;30.41;37.93;98850.70;1709597;81;21755;-59
2022/07/10 09:50:33;;;;;;;2.55;2.30;;;;;;;30.41;37.91;98854.77;1688190;82;21463;-60
2022/07/10 09:53:02;;;;;;;2.35;2.12;;;;;;;30.38;38.01;98845.17;1685060;82;21455;-61
2022/07/10 09:55:30;;;;;;;2.65;2.37;;;;;;;30.57;38.01;98842.11;1690673;82;21624;-60
2022/07/10 09:58:06;;;;;;;5.28;2.35;;;;;;;30.83;38.12;98837.59;1691867;83;21471;-61
2022/07/10 10:00:35;;;;;;;3.17;2.75;;;;;;;31.09;37.27;98843.42;1686029;83;21590;-59
2022/07/10 10:03:05;;;;;;;3.22;2.30;;;;;;;31.24;36.67;98840.41;1683765;82;21616;-58
2022/07/10 10:05:54;;;;;;;2.10;1.90;;;;;;;31.40;36.45;98842.59;1681821;82;21546;-60
2022/07/10 10:08:34;;;;;;;3.72;1.77;;;;;;;31.44;36.30;98845.17;1695896;82;21076;-62
2022/07/10 10:11:01;;;;;;;3.50;2.40;;;;;;;31.40;35.60;98838.52;1692533;83;21535;-60
2022/07/10 10:13:30;;;;;;;1.90;1.70;;;;;;;31.27;35.30;98839.98;1687366;83;21949;-60
2022/07/10 10:15:57;;;;;;;2.37;1.70;;;;;;;31.22;34.97;98838.44;1689532;83;20967;-60
2022/07/10 10:18:26;;;;;;;2.22;1.57;;;;;;;31.11;34.69;98828.28;1688511;83;22060;-60
2022/07/10 10:20:53;;;;;;;;;;;;;;;31.10;34.70;98838.81;1692271;83;21610;-61
2022/07/10 10:23:25;;;;;;;2.60;1.50;;;;;;;31.11;34.71;98826.39;1692610;83;20181;-58
2022/07/10 10:25:55;;;;;;;2.55;1.80;;;;;;;31.23;34.93;98821.08;1691036;83;22199;-61
2022/07/10 10:28:23;;;;;;;2.00;1.50;;;;;;;31.36;34.31;98825.09;1687831;83;21578;-64
2022/07/10 10:30:57;;;;;;;2.12;1.42;;;;;;;31.65;34.36;98817.35;1686214;83;21664;-64
2022/07/10 10:33:40;;;;;;;4.72;1.67;;;;;;;31.87;34.23;98810.95;1686225;83;21684;-60
2022/07/10 10:36:09;;;;;;;2.47;1.52;;;;;;;31.85;33.29;98802.73;1692592;83;21607;-63
2022/07/10 10:38:57;;;;;;;;;;;;;;;31.74;33.56;98805.15;1687012;83;21748;-63
2022/07/10 10:41:28;;;;;;;1.80;1.50;;;;;;;31.65;33.82;98806.48;1698211;82;20483;-63
2022/07/10 10:44:13;;;;;;;2.95;1.95;;;;;;;31.55;34.28;98806.99;1680287;82;21526;-63
2022/07/10 10:47:06;;;;;;;2.02;1.82;;;;;;;31.49;33.95;98808.39;1688013;82;21577;-63
2022/07/10 10:49:57;;;;;;;2.55;1.77;;;;;;;31.45;33.67;98805.25;1721834;81;21878;-63
2022/07/10 10:52:24;;;;;;;5.37;1.65;;;;;;;31.42;34.32;98801.64;1681462;82;21772;-65
2022/07/10 10:55:03;;;;;;;1.75;1.65;;;;;;;31.41;34.22;98798.61;1725126;80;20955;-62
2022/07/10 10:57:39;;;;;;;1.80;1.57;;;;;;;31.37;34.29;98798.22;1684972;82;21534;-60
2022/07/10 11:00:07;;;;;;;1.72;1.52;;;;;;;31.45;34.01;98791.67;1721236;81;21006;-60
2022/07/10 11:02:39;;;;;;;2.40;1.75;;;;;;;31.51;33.99;98790.81;1722194;80;21539;-61
2022/07/10 11:05:18;;;;;;;3.30;1.50;;;;;;;31.66;34.21;98782.86;1733844;80;21809;-60
2022/07/10 11:07:58;;;;;;;1.90;1.57;;;;;;;31.78;33.55;98782.44;1723774;80;21478;-60
2022/07/10 11:10:41;;;;;;;1.77;1.62;;;;;;;31.84;33.60;98784.78;1715815;80;21530;-60
2022/07/10 11:13:17;;;;;;;1.60;1.40;;;;;;;31.89;34.01;98779.48;1680963;82;21524;-60
2022/07/10 11:15:48;;;;;;;1.62;1.52;;;;;;;32.08;34.15;98784.43;1682992;84;21499;-59
2022/07/10 11:18:25;;;;;;;2.85;1.52;;;;;;;32.09;33.23;98782.85;1680041;84;21804;-61
2022/07/10 11:20:55;;;;;;;3.92;1.57;;;;;;;32.11;33.49;98776.66;1715658;80;21634;-60
2022/07/10 11:23:50;;;;;;;2.12;1.90;;;;;;;32.16;32.67;98774.63;1687823;84;21439;-60
2022/07/10 11:26:46;;;;;;;3.58;1.87;;;;;;;32.31;32.71;98781.87;1728343;80;21054;-61
2022/07/10 11:29:17;;;;;;;3.67;2.17;;;;;;;32.34;32.54;98775.13;1630369;85;21595;-61
2022/07/10 11:31:53;;;;;;;3.52;1.42;;;;;;;32.24;31.44;98779.75;1672381;84;21748;-64
2022/07/10 11:34:21;;;;;;;4.05;1.77;;;;;;;32.39;32.33;98776.65;1674840;85;21403;-61
2022/07/10 11:36:48;;;;;;;1.42;1.32;;;;;;;32.53;32.03;98778.15;1676665;83;21491;-62
2022/07/10 11:39:16;;;;;;;4.23;1.90;;;;;;;32.55;31.75;98778.75;1673360;84;21506;-60
2022/07/10 11:41:46;;;;;;;1.40;1.30;;;;;;;32.51;31.56;98778.06;1669906;84;21519;-60
2022/07/10 11:44:20;;;;;;;1.67;1.47;;;;;;;32.39;31.86;98776.65;1669339;84;21796;-60
2022/07/10 11:46:44;;;;;;;1.90;1.62;;;;;;;32.14;31.94;98779.47;1671679;84;21594;-60
2022/07/10 11:49:14;;;;;;;;;;;;;;;32.01;32.61;98783.95;1671203;84;21068;-59
2022/07/10 11:51:40;;;;;;;2.30;1.40;;;;;;;31.88;31.77;98778.66;1658393;84;20449;-60
2022/07/10 11:54:15;;;;;;;3.35;1.30;;;;;;;31.69;31.86;98775.09;1667622;84;21420;-61